createdAt,value
2018-12-14T00:01:30.143Z,3.60
2018-12-14T00:03:57.622Z,3.60
2018-12-14T00:06:25.130Z,3.60
2018-12-14T00:13:59.104Z,3.60
2018-12-14T00:16:26.576Z,3.60
2018-12-14T00:18:56.359Z,3.60
2018-12-14T00:21:23.863Z,3.60
2018-12-14T00:23:51.874Z,3.60
2018-12-14T00:26:20.789Z,3.70
2018-12-14T00:28:48.372Z,3.70
2018-12-14T00:31:16.659Z,3.70
2018-12-14T00:33:44.197Z,3.70
2018-12-14T00:36:11.674Z,3.60
2018-12-14T00:38:39.231Z,3.60
2018-12-14T00:41:06.700Z,3.60
2018-12-14T00:43:34.166Z,3.50
2018-12-14T00:46:01.640Z,3.50
2018-12-14T00:48:29.087Z,3.60
2018-12-14T00:50:56.558Z,3.50
2018-12-14T00:53:24.019Z,3.60
2018-12-14T00:55:51.530Z,3.60
2018-12-14T00:58:18.991Z,3.50
2018-12-14T01:00:46.477Z,3.50
2018-12-14T01:03:13.966Z,3.60
2018-12-14T01:05:41.424Z,3.60
2018-12-14T01:08:08.900Z,3.60
2018-12-14T01:10:36.371Z,3.60
2018-12-14T01:13:03.923Z,3.50
2018-12-14T01:15:31.414Z,3.50
2018-12-14T01:17:58.898Z,3.60
2018-12-14T01:20:26.358Z,3.60
2018-12-14T01:22:53.813Z,3.60
2018-12-14T01:25:21.317Z,3.60
2018-12-14T01:27:48.790Z,3.60
2018-12-14T01:30:16.264Z,3.60
2018-12-14T01:32:43.714Z,3.60
2018-12-14T01:35:11.191Z,3.50
2018-12-14T01:44:49.377Z,3.50
2018-12-14T01:47:16.847Z,3.50
2018-12-14T01:49:44.367Z,3.40
2018-12-14T01:52:11.826Z,3.40
2018-12-14T01:54:39.350Z,3.40
2018-12-14T01:57:06.869Z,3.40
2018-12-14T01:59:34.330Z,3.50
2018-12-14T02:02:01.879Z,3.50
2018-12-14T02:04:29.335Z,3.50
2018-12-14T02:06:56.806Z,3.50
2018-12-14T02:09:24.270Z,3.50
2018-12-14T02:11:51.736Z,3.50
2018-12-14T02:14:19.186Z,3.50
2018-12-14T02:16:46.653Z,3.50
2018-12-14T02:19:14.122Z,3.50
2018-12-14T02:21:41.590Z,3.40
2018-12-14T02:24:09.066Z,3.50
2018-12-14T02:26:36.526Z,3.50
2018-12-14T02:29:03.995Z,3.60
2018-12-14T02:31:31.468Z,3.60
2018-12-14T02:33:58.941Z,3.60
2018-12-14T02:36:26.402Z,3.60
2018-12-14T02:38:53.980Z,3.60
2018-12-14T02:41:21.444Z,3.60
2018-12-14T02:43:48.993Z,3.50
2018-12-14T02:46:16.463Z,3.60
2018-12-14T02:48:43.931Z,3.60
2018-12-14T02:51:11.404Z,3.60
2018-12-14T02:53:38.863Z,3.60
2018-12-14T02:56:06.339Z,3.60
2018-12-14T02:58:33.794Z,3.50
2018-12-14T03:01:01.272Z,3.50
2018-12-14T03:03:28.732Z,3.50
2018-12-14T03:05:56.202Z,3.50
2018-12-14T03:08:23.663Z,3.50
2018-12-14T03:10:51.123Z,3.50
2018-12-14T03:13:18.595Z,3.50
2018-12-14T03:15:46.086Z,3.40
2018-12-14T03:18:13.551Z,3.40
2018-12-14T03:20:41.009Z,3.30
2018-12-14T03:23:08.481Z,3.20
2018-12-14T03:25:35.948Z,3.20
2018-12-14T03:28:03.419Z,3.10
2018-12-14T03:30:30.877Z,3.20
2018-12-14T03:32:58.336Z,3.10
2018-12-14T03:35:25.802Z,3.10
2018-12-14T03:37:53.370Z,3.10
2018-12-14T03:40:20.898Z,3.10
2018-12-14T03:42:48.359Z,3.10
2018-12-14T03:45:15.822Z,3.10
2018-12-14T03:47:43.278Z,3.00
2018-12-14T03:50:10.744Z,3.00
2018-12-14T03:52:38.198Z,3.00
2018-12-14T03:55:05.740Z,3.00
2018-12-14T03:57:33.206Z,3.00
2018-12-14T04:00:00.672Z,3.00
2018-12-14T04:02:28.161Z,3.10
2018-12-14T04:04:55.606Z,3.10
2018-12-14T04:07:23.083Z,3.10
2018-12-14T04:09:50.547Z,3.10
2018-12-14T04:12:18.023Z,3.00
2018-12-14T04:14:45.587Z,3.10
2018-12-14T04:17:13.139Z,3.10
2018-12-14T04:19:40.598Z,3.00
2018-12-14T04:22:08.055Z,3.00
2018-12-14T04:24:36.543Z,3.00
2018-12-14T04:27:04.003Z,3.10
2018-12-14T04:29:31.486Z,3.10
2018-12-14T04:31:58.939Z,3.00
2018-12-14T04:34:26.405Z,3.00
2018-12-14T04:36:53.864Z,3.00
2018-12-14T04:39:21.337Z,3.00
2018-12-14T04:41:48.818Z,3.10
2018-12-14T04:44:16.412Z,3.10
2018-12-14T04:46:43.968Z,3.10
2018-12-14T04:49:12.545Z,3.20
2018-12-14T04:51:41.205Z,3.20
2018-12-14T04:54:08.719Z,3.10
2018-12-14T04:56:36.351Z,3.10
2018-12-14T04:59:04.055Z,3.10
2018-12-14T05:01:31.833Z,3.10
2018-12-14T05:03:59.351Z,3.20
2018-12-14T05:06:27.312Z,3.20
2018-12-14T05:08:54.766Z,3.20
2018-12-14T05:11:22.315Z,3.30
2018-12-14T05:13:49.826Z,3.30
2018-12-14T05:16:17.316Z,3.30
2018-12-14T05:18:44.877Z,3.30
2018-12-14T05:21:12.530Z,3.30
2018-12-14T05:23:40.203Z,3.30
2018-12-14T05:26:07.854Z,3.30
2018-12-14T05:28:35.424Z,3.30
2018-12-14T05:31:02.932Z,3.40
2018-12-14T05:33:30.420Z,3.30
2018-12-14T05:35:57.949Z,3.30
2018-12-14T05:38:25.506Z,3.30
2018-12-14T05:40:52.954Z,3.20
2018-12-14T05:43:20.430Z,3.20
2018-12-14T05:45:47.883Z,3.20
2018-12-14T05:48:15.432Z,3.20
2018-12-14T05:50:42.999Z,3.20
2018-12-14T05:53:10.478Z,3.20
2018-12-14T05:55:37.930Z,3.30
2018-12-14T05:58:05.394Z,3.30
2018-12-14T06:00:32.857Z,3.20
2018-12-14T06:03:00.419Z,3.20
2018-12-14T06:05:27.891Z,3.20
2018-12-14T06:07:55.347Z,3.30
2018-12-14T06:10:22.830Z,3.40
2018-12-14T06:12:50.299Z,3.40
2018-12-14T06:15:17.772Z,3.40
2018-12-14T06:17:45.236Z,3.50
2018-12-14T06:20:12.709Z,3.50
2018-12-14T06:22:40.171Z,3.50
2018-12-14T06:25:07.706Z,3.50
2018-12-14T06:27:35.176Z,3.40
2018-12-14T06:30:03.190Z,3.40
2018-12-14T06:32:30.658Z,3.40
2018-12-14T06:34:58.155Z,3.40
2018-12-14T06:37:25.898Z,3.50
2018-12-14T06:39:53.358Z,3.40
2018-12-14T06:42:21.102Z,3.40
2018-12-14T06:44:48.843Z,3.50
2018-12-14T06:47:16.330Z,3.50
2018-12-14T06:49:43.797Z,3.50
2018-12-14T06:52:11.250Z,3.50
2018-12-14T06:54:38.732Z,3.40
2018-12-14T06:57:06.190Z,3.40
2018-12-14T06:59:33.786Z,3.50
2018-12-14T07:02:01.279Z,3.50
2018-12-14T07:04:28.767Z,3.40
2018-12-14T07:06:56.215Z,3.40
2018-12-14T07:09:23.689Z,3.30
2018-12-14T07:11:51.140Z,3.20
2018-12-14T07:14:18.611Z,3.30
2018-12-14T07:16:46.062Z,3.30
2018-12-14T07:19:13.567Z,3.30
2018-12-14T07:21:41.014Z,3.30
2018-12-14T07:24:08.559Z,3.30
2018-12-14T07:26:36.187Z,3.20
2018-12-14T07:29:03.728Z,3.20
2018-12-14T07:31:31.588Z,3.30
2018-12-14T07:33:59.061Z,3.40
2018-12-14T07:36:26.535Z,3.40
2018-12-14T07:38:54.000Z,3.40
2018-12-14T07:41:21.546Z,3.50
2018-12-14T07:43:49.004Z,3.50
2018-12-14T07:46:16.750Z,3.60
2018-12-14T07:48:44.217Z,3.60
2018-12-14T07:51:11.715Z,3.60
2018-12-14T07:53:39.179Z,3.50
2018-12-14T07:56:06.642Z,3.60
2018-12-14T07:58:34.770Z,3.60
2018-12-14T08:01:02.253Z,3.50
2018-12-14T08:03:29.726Z,3.50
2018-12-14T08:05:57.198Z,3.50
2018-12-14T08:08:24.681Z,3.40
2018-12-14T08:10:52.151Z,3.40
2018-12-14T08:13:19.627Z,3.50
2018-12-14T08:15:47.086Z,3.60
2018-12-14T08:18:14.588Z,3.70
2018-12-14T08:20:42.043Z,3.60
2018-12-14T08:23:09.514Z,3.70
2018-12-14T08:25:36.978Z,3.70
2018-12-14T08:28:04.444Z,3.80
2018-12-14T08:30:31.925Z,3.80
2018-12-14T08:32:59.399Z,3.80
2018-12-14T08:35:26.851Z,3.70
2018-12-14T08:37:54.323Z,3.70
2018-12-14T08:40:21.783Z,3.70
2018-12-14T08:42:49.267Z,3.70
2018-12-14T08:45:16.796Z,3.80
2018-12-14T08:47:44.427Z,3.70
2018-12-14T08:50:11.907Z,3.60
2018-12-14T08:52:39.377Z,3.60
2018-12-14T08:55:06.922Z,3.60
2018-12-14T08:57:34.388Z,3.60
2018-12-14T09:00:01.938Z,3.70
2018-12-14T09:02:29.826Z,3.70
2018-12-14T09:04:57.295Z,3.70
2018-12-14T09:07:24.842Z,3.80
2018-12-14T09:09:52.458Z,3.80
2018-12-14T09:12:19.957Z,3.80
2018-12-14T09:14:47.419Z,3.80
2018-12-14T09:17:14.912Z,3.80
2018-12-14T09:19:42.366Z,3.80
2018-12-14T09:22:09.853Z,3.90
2018-12-14T09:24:37.327Z,3.80
2018-12-14T09:27:05.733Z,3.80
2018-12-14T09:29:33.251Z,3.70
2018-12-14T09:32:00.726Z,3.80
2018-12-14T09:34:28.207Z,3.70
2018-12-14T09:36:55.721Z,3.70
2018-12-14T09:39:23.200Z,3.80
2018-12-14T09:41:51.683Z,3.80
2018-12-14T09:44:19.158Z,3.80
2018-12-14T09:46:46.614Z,3.70
2018-12-14T09:49:14.090Z,3.80
2018-12-14T09:51:41.551Z,3.80
2018-12-14T09:54:09.474Z,3.80
2018-12-14T09:56:36.942Z,3.80
2018-12-14T09:59:05.430Z,3.90
2018-12-14T10:01:32.882Z,3.90
2018-12-14T10:04:00.364Z,3.90
2018-12-14T10:06:27.814Z,4.00
2018-12-14T10:08:55.292Z,3.90
2018-12-14T10:11:22.770Z,3.90
2018-12-14T10:13:50.255Z,3.90
2018-12-14T10:16:17.732Z,3.90
2018-12-14T10:18:45.382Z,3.90
2018-12-14T10:21:12.846Z,3.90
2018-12-14T10:23:40.315Z,3.80
2018-12-14T10:26:08.071Z,3.70
2018-12-14T10:28:36.324Z,3.70
2018-12-14T10:31:04.021Z,3.80
2018-12-14T10:33:31.486Z,3.90
2018-12-14T10:35:58.982Z,3.80
2018-12-14T10:38:26.451Z,3.80
2018-12-14T10:40:53.922Z,3.80
2018-12-14T10:43:21.409Z,3.80
2018-12-14T10:45:49.085Z,3.90
2018-12-14T10:48:16.562Z,4.00
2018-12-14T10:50:44.118Z,3.90
2018-12-14T10:53:11.582Z,3.90
2018-12-14T10:55:39.056Z,3.90
2018-12-14T10:58:06.595Z,4.00
2018-12-14T11:00:39.930Z,4.00
2018-12-14T11:03:07.385Z,4.00
2018-12-14T11:05:34.920Z,4.00
2018-12-14T11:08:02.414Z,4.00
2018-12-14T11:10:29.883Z,4.00
2018-12-14T11:12:57.358Z,4.00
2018-12-14T11:15:25.823Z,4.00
2018-12-14T11:17:53.294Z,3.90
2018-12-14T11:20:20.762Z,4.00
2018-12-14T11:22:48.252Z,4.10
2018-12-14T11:25:15.806Z,4.10
2018-12-14T11:27:43.308Z,4.10
2018-12-14T11:30:10.836Z,4.10
2018-12-14T11:32:38.321Z,4.00
2018-12-14T11:35:05.831Z,4.00
2018-12-14T11:37:33.306Z,4.00
2018-12-14T11:40:00.772Z,4.00
2018-12-14T11:42:28.229Z,4.00
2018-12-14T11:44:55.698Z,3.90
2018-12-14T11:47:23.260Z,4.00
2018-12-14T11:49:50.755Z,4.10
2018-12-14T11:52:18.239Z,4.10
2018-12-14T11:54:45.710Z,4.20
2018-12-14T11:57:13.179Z,4.30
2018-12-14T11:59:40.652Z,4.30
2018-12-14T12:02:08.130Z,4.40
2018-12-14T12:04:35.607Z,4.40
2018-12-14T12:07:03.089Z,4.40
2018-12-14T12:09:30.563Z,4.40
2018-12-14T12:11:58.022Z,4.30
2018-12-14T12:14:27.084Z,4.30
2018-12-14T12:16:54.789Z,4.20
2018-12-14T12:19:22.288Z,4.20
2018-12-14T12:21:50.038Z,4.30
2018-12-14T12:24:17.519Z,4.30
2018-12-14T12:26:45.012Z,4.30
2018-12-14T12:29:12.466Z,4.30
2018-12-14T12:31:39.956Z,4.30
2018-12-14T12:34:07.427Z,4.30
2018-12-14T12:36:34.977Z,4.30
2018-12-14T12:39:03.310Z,4.20
2018-12-14T12:41:30.787Z,4.20
2018-12-14T12:43:58.245Z,4.10
2018-12-14T12:46:25.708Z,4.10
2018-12-14T12:48:53.254Z,4.10
2018-12-14T12:51:20.989Z,4.00
2018-12-14T12:53:48.464Z,4.00
2018-12-14T12:56:16.002Z,4.10
2018-12-14T12:58:43.475Z,4.10
2018-12-14T13:01:10.943Z,4.00
2018-12-14T13:03:38.418Z,4.00
2018-12-14T13:06:05.903Z,4.00
2018-12-14T13:08:33.402Z,4.00
2018-12-14T13:11:00.855Z,4.00
2018-12-14T13:13:28.335Z,4.00
2018-12-14T13:15:55.798Z,3.90
2018-12-14T13:18:23.262Z,3.90
2018-12-14T13:20:50.794Z,3.90
2018-12-14T13:23:18.281Z,4.00
2018-12-14T13:25:45.742Z,4.00
2018-12-14T13:28:13.476Z,4.00
2018-12-14T13:30:41.254Z,4.00
2018-12-14T13:33:08.838Z,4.00
2018-12-14T13:35:36.587Z,3.90
2018-12-14T13:38:04.055Z,3.90
2018-12-14T13:40:31.568Z,4.00
2018-12-14T13:42:59.068Z,3.90
2018-12-14T13:45:26.578Z,3.90
2018-12-14T13:47:54.225Z,4.00
2018-12-14T13:50:21.726Z,3.90
2018-12-14T13:52:49.186Z,4.00
2018-12-14T13:55:16.687Z,4.00
2018-12-14T13:57:45.540Z,4.00
2018-12-14T14:00:13.355Z,4.00
2018-12-14T14:02:40.839Z,3.90
2018-12-14T14:05:08.313Z,3.90
2018-12-14T14:07:35.799Z,3.90
2018-12-14T14:10:04.815Z,3.90
2018-12-14T14:12:32.285Z,4.00
2018-12-14T14:15:00.261Z,4.00
2018-12-14T14:17:27.831Z,4.00
2018-12-14T14:19:55.282Z,4.00
2018-12-14T14:22:23.030Z,3.90
2018-12-14T14:24:50.502Z,3.80
2018-12-14T14:27:17.979Z,3.90
2018-12-14T14:29:45.446Z,3.90
2018-12-14T14:32:12.947Z,3.90
2018-12-14T14:34:40.446Z,4.00
2018-12-14T14:37:07.955Z,3.90
2018-12-14T14:39:35.410Z,3.90
2018-12-14T14:42:02.899Z,4.00
2018-12-14T14:44:30.382Z,4.00
2018-12-14T14:46:57.866Z,4.00
2018-12-14T14:49:25.362Z,3.90
2018-12-14T14:51:53.176Z,3.80
2018-12-14T14:54:20.643Z,3.90
2018-12-14T14:56:48.951Z,3.90
2018-12-14T14:59:16.427Z,3.90
2018-12-14T15:01:43.911Z,3.90
2018-12-14T15:04:11.385Z,3.90
2018-12-14T15:06:38.843Z,3.90
2018-12-14T15:09:07.762Z,4.00
2018-12-14T15:11:35.238Z,4.00
2018-12-14T15:14:02.782Z,4.00
2018-12-14T15:16:30.238Z,4.00
2018-12-14T15:18:57.846Z,4.00
2018-12-14T15:21:25.334Z,4.00
2018-12-14T15:23:52.811Z,4.00
2018-12-14T15:26:20.292Z,4.00
2018-12-14T15:28:47.765Z,4.00
2018-12-14T15:31:15.329Z,4.00
2018-12-14T15:33:42.829Z,4.00
2018-12-14T15:36:10.288Z,4.00
2018-12-14T15:38:37.745Z,3.90
2018-12-14T15:41:05.278Z,4.00
2018-12-14T15:43:32.772Z,4.00
2018-12-14T15:46:00.251Z,4.00
2018-12-14T15:48:27.710Z,4.00
2018-12-14T15:50:55.206Z,3.90
2018-12-14T15:53:22.675Z,3.90
2018-12-14T15:55:51.225Z,3.90
2018-12-14T15:58:18.705Z,3.90
2018-12-14T16:00:46.203Z,3.90
2018-12-14T16:03:13.666Z,3.90
2018-12-14T16:05:41.156Z,3.90
2018-12-14T16:08:08.732Z,3.90
2018-12-14T16:10:36.307Z,3.90
2018-12-14T16:13:03.877Z,4.00
2018-12-14T16:15:31.453Z,4.00
2018-12-14T16:17:59.023Z,4.00
2018-12-14T16:20:26.507Z,4.00
2018-12-14T16:22:54.079Z,4.00
2018-12-14T16:25:21.671Z,4.00
2018-12-14T16:27:49.151Z,4.00
2018-12-14T16:30:16.668Z,4.00
2018-12-14T16:32:44.147Z,4.00
2018-12-14T16:35:11.606Z,3.90
2018-12-14T16:37:40.057Z,3.90
2018-12-14T16:40:08.704Z,3.90
2018-12-14T16:42:36.251Z,3.90
2018-12-14T16:45:04.697Z,3.90
2018-12-14T16:47:32.177Z,3.90
2018-12-14T16:50:00.660Z,4.00
2018-12-14T16:52:28.140Z,4.00
2018-12-14T16:54:55.607Z,4.00
2018-12-14T16:57:23.066Z,4.00
2018-12-14T16:59:50.552Z,4.00
2018-12-14T17:02:18.014Z,4.00
2018-12-14T17:04:45.490Z,4.10
2018-12-14T17:07:12.984Z,4.10
2018-12-14T17:09:40.462Z,4.10
2018-12-14T17:12:07.925Z,4.10
2018-12-14T17:14:35.401Z,4.10
2018-12-14T17:17:02.962Z,4.00
2018-12-14T17:19:30.433Z,4.10
2018-12-14T17:21:57.989Z,4.00
2018-12-14T17:24:25.453Z,3.90
2018-12-14T17:26:53.051Z,4.00
2018-12-14T17:29:20.579Z,3.90
2018-12-14T17:31:48.093Z,4.00
2018-12-14T17:34:15.555Z,3.90
2018-12-14T17:36:43.042Z,3.90
2018-12-14T17:39:10.511Z,3.90
2018-12-14T17:41:38.062Z,4.00
2018-12-14T17:44:05.592Z,4.00
2018-12-14T17:46:33.635Z,4.00
2018-12-14T17:49:01.140Z,4.00
2018-12-14T17:51:28.920Z,4.00
2018-12-14T17:53:56.439Z,4.00
2018-12-14T17:56:23.921Z,4.00
2018-12-14T17:58:51.387Z,4.00
2018-12-14T18:01:18.878Z,4.00
2018-12-14T18:03:46.383Z,4.00
2018-12-14T18:06:13.838Z,4.10
2018-12-14T18:08:41.355Z,4.10
2018-12-14T18:11:08.827Z,4.10
2018-12-14T18:13:36.301Z,4.10
2018-12-14T18:16:04.118Z,4.10
2018-12-14T18:18:31.602Z,4.00
2018-12-14T18:20:59.082Z,4.00
2018-12-14T18:23:26.544Z,4.00
2018-12-14T18:25:54.041Z,4.00
2018-12-14T18:28:21.536Z,4.00
2018-12-14T18:30:49.022Z,4.00
2018-12-14T18:33:16.493Z,4.00
2018-12-14T18:35:43.994Z,4.00
2018-12-14T18:38:11.474Z,4.00
2018-12-14T18:40:38.954Z,4.00
2018-12-14T18:43:06.435Z,4.00
2018-12-14T18:45:33.956Z,4.00
2018-12-14T18:48:01.415Z,4.00
2018-12-14T18:50:28.882Z,4.00
2018-12-14T18:52:56.435Z,4.10
2018-12-14T18:55:23.919Z,4.00
2018-12-14T18:57:51.396Z,4.00
2018-12-14T19:00:18.913Z,4.00
2018-12-14T19:02:46.422Z,4.00
2018-12-14T19:05:13.916Z,3.90
2018-12-14T19:07:41.450Z,4.00
2018-12-14T19:10:08.960Z,4.00
2018-12-14T19:12:36.644Z,4.10
2018-12-14T19:15:04.935Z,4.10
2018-12-14T19:17:32.447Z,4.00
2018-12-14T19:19:59.930Z,4.00
2018-12-14T19:22:27.430Z,4.00
2018-12-14T19:24:54.919Z,4.00
2018-12-14T19:27:22.391Z,4.00
2018-12-14T19:29:49.862Z,3.90
2018-12-14T19:32:17.402Z,3.90
2018-12-14T19:34:44.904Z,3.90
2018-12-14T19:37:12.378Z,4.00
2018-12-14T19:39:39.862Z,3.90
2018-12-14T19:42:08.178Z,3.90
2018-12-14T19:44:35.964Z,3.90
2018-12-14T19:47:03.492Z,3.90
2018-12-14T19:49:31.469Z,3.80
2018-12-14T19:51:59.057Z,3.80
2018-12-14T19:54:26.820Z,3.90
2018-12-14T19:56:54.410Z,3.90
2018-12-14T19:59:21.888Z,3.90
2018-12-14T20:01:49.363Z,3.80
2018-12-14T20:04:16.822Z,3.80
2018-12-14T20:06:44.307Z,3.80
2018-12-14T20:09:11.872Z,3.70
2018-12-14T20:11:39.496Z,3.70
2018-12-14T20:14:07.096Z,3.80
2018-12-14T20:16:34.568Z,3.80
2018-12-14T20:19:02.114Z,3.60
2018-12-14T20:21:29.713Z,3.60
2018-12-14T20:23:57.499Z,3.60
2018-12-14T20:26:25.121Z,3.60
2018-12-14T20:28:52.614Z,3.60
2018-12-14T20:31:20.119Z,3.50
2018-12-14T20:33:47.647Z,3.40
2018-12-14T20:36:15.110Z,3.40
2018-12-14T20:38:42.616Z,3.50
2018-12-14T20:41:10.164Z,3.50
2018-12-14T20:43:37.652Z,3.40
2018-12-14T20:46:05.126Z,3.30
2018-12-14T20:48:32.599Z,3.30
2018-12-14T20:51:00.087Z,3.30
2018-12-14T20:53:27.751Z,3.30
2018-12-14T20:55:55.279Z,3.30
2018-12-14T20:58:22.761Z,3.30
2018-12-14T21:00:50.331Z,3.30
2018-12-14T21:03:17.892Z,3.20
2018-12-14T21:05:45.935Z,3.20
2018-12-14T21:08:13.524Z,3.10
2018-12-14T21:10:41.076Z,3.10
2018-12-14T21:13:08.549Z,3.20
2018-12-14T21:15:36.034Z,3.20
2018-12-14T21:18:03.570Z,3.30
2018-12-14T21:20:31.040Z,3.30
2018-12-14T21:22:58.535Z,3.30
2018-12-14T21:25:26.061Z,3.30
2018-12-14T21:27:53.639Z,3.30
2018-12-14T21:30:21.102Z,3.30
2018-12-14T21:32:48.575Z,3.30
2018-12-14T21:35:16.046Z,3.40
2018-12-14T21:37:43.540Z,3.30
2018-12-14T21:40:11.145Z,3.20
2018-12-14T21:42:38.606Z,3.20
2018-12-14T21:45:07.130Z,3.30
2018-12-14T21:47:34.602Z,3.30
2018-12-14T21:50:02.106Z,3.30
2018-12-14T21:52:29.607Z,3.40
2018-12-14T21:54:57.093Z,3.40
2018-12-14T21:57:24.559Z,3.40
2018-12-14T21:59:52.034Z,3.40
2018-12-14T22:02:19.514Z,3.40
2018-12-14T22:04:47.011Z,3.40
2018-12-14T22:07:14.474Z,3.40
2018-12-14T22:09:42.894Z,3.40
2018-12-14T22:12:11.409Z,3.40
2018-12-14T22:14:38.875Z,3.50
2018-12-14T22:17:06.395Z,3.50
2018-12-14T22:19:33.854Z,3.50
2018-12-14T22:22:01.346Z,3.40
2018-12-14T22:24:28.827Z,3.50
2018-12-14T22:26:56.305Z,3.30
2018-12-14T22:29:23.759Z,3.30
2018-12-14T22:31:51.278Z,3.30
2018-12-14T22:34:18.727Z,3.30
2018-12-14T22:36:46.210Z,3.20
2018-12-14T22:39:14.065Z,3.30
2018-12-14T22:41:41.552Z,3.20
2018-12-14T22:44:09.079Z,3.20
2018-12-14T22:46:37.208Z,3.30
2018-12-14T22:49:04.725Z,3.20
2018-12-14T22:51:32.191Z,3.20
2018-12-14T22:53:59.667Z,3.10
2018-12-14T22:56:27.220Z,3.10
2018-12-14T22:58:54.695Z,3.10
2018-12-14T23:01:22.149Z,3.10
2018-12-14T23:03:49.634Z,3.20
2018-12-14T23:06:17.096Z,3.10
2018-12-14T23:08:44.578Z,3.20
2018-12-14T23:11:12.064Z,3.10
2018-12-14T23:13:39.566Z,3.10
2018-12-14T23:16:07.047Z,3.10
2018-12-14T23:18:34.497Z,3.10
2018-12-14T23:21:02.081Z,3.10
2018-12-14T23:23:29.565Z,3.00
2018-12-14T23:25:57.030Z,3.00
2018-12-14T23:28:24.502Z,3.00
2018-12-14T23:30:52.991Z,3.00
2018-12-14T23:33:20.485Z,3.00
2018-12-14T23:35:47.956Z,3.00
2018-12-14T23:38:15.446Z,3.00
2018-12-14T23:40:42.924Z,3.10
2018-12-14T23:43:10.382Z,3.10
2018-12-14T23:45:37.895Z,3.10
2018-12-14T23:48:05.359Z,3.00
2018-12-14T23:50:32.819Z,3.00
2018-12-14T23:53:00.327Z,3.00
2018-12-14T23:55:27.792Z,3.10
2018-12-14T23:57:55.263Z,3.00
